SPHI/CIX METAR and TAF weather

Enter ICAO airport designator
Station Type Date Time Source
SPHI METAR 2021/05/14 12:00 UTC NOAA

SPHI 141200Z 18009KT 7000 SCT005 18/16 Q1012 RMK BR BIRD HAZARD RWY 19/01 TN17.7 PP000


Station Type Date Time Source
SPHI Decoded METAR 2021/05/14 12:00 UTC NOAA

Chiclayo, Peru (SPHI) 06-47S 079-50W 34M
May 14, 2021 - 08:00 AM EDT / 2021.05.14 1200 UTC
Wind: from the S (180 degrees) at 10 MPH (9 KT):0
Visibility: 4 mile(s):0
Sky conditions: partly cloudy
Temperature: 64 F (18 C)
Dew Point: 60 F (16 C)
Relative Humidity: 88%
Pressure (altimeter): 29.88 in. Hg (1012 hPa)
ob: SPHI 141200Z 18009KT 7000 SCT005 18/16 Q1012 RMK BR BIRD HAZARD RWY 19/01 TN17.7 PP000
cycle: 12

Station Type Date Time Source
SPHI TAF 2021/05/14 12:46 UTC NOAA

TAF SPHI 141100Z 1412/1512 17007KT CAVOK TX25/1419Z TN17/1511Z
TEMPO 1412/1414 BKN012
FM141730 19015KT CAVOK

Example: see airport list